Saint-Laurent, Canada
Current Conditions -  °F | °C
As of 6:00 PM on Monday 20 Oct 2014 (Local Time) from CYUL Reporting Station
Overcast Overcast  
Wind Chill: 43°   Ceiling: 7500
Heat Index: 43°   Visibility: 15mi
Dew Point: 34°   Wind: 3mph
Humidity: 70%   Direction: 70°ENE
Pressure: 29.93"   Gusts: NA
Location:  45.52°N, 73.67°W
Report Text: CYUL 202200Z 07003KT 15SM SCT060 BKN075 OVC095 06/01 A2993 RMK SC3AC4AC1 SLP138
Loading
Personal Weather Stations






























Interactive Weather Map
Tropical Storm Tracking
New forecast layout! Learn more

10-Day Weather Forecast

Advertisements
Track Severe Weather on mobile